Terminal Aerodrome Forecast
Issued by NWS Wilmington, OH

Current Version | Previous Version | Text Only | Print | Product List | Glossary On
Versions: 1 2 3 4 5 6 7 8 9 10 11 12 13 14 15 16 17 18
000
FTUS41 KILN 312330
TAFILN
TAF
KILN 312330Z 0100/0124 VRB05KT P6SM SCT100 BKN250
     FM010300 08004KT P6SM SCT250
     FM011400 14006KT P6SM SCT150
     FM011800 18007KT P6SM SCT040 BKN100=

USA.gov is the U.S. government's official web portal to all federal, state and local government web resources and services.